Terminal Aerodrome Forecast
Issued by NWS

Home | Current Version | Previous Version | Graphics & Text | Print | Product List | Glossary On
Versions: 1 2 3 4 5 6 7 8 9 10 11 12 13 14 15
000
FTUS43 KGRB 182033 AAA
TAFATW
TAF AMD
KATW 182033Z 1821/1918 04015G24KT P6SM OVC020
     FM190100 01012G19KT P6SM BKN024 WS015/04035KT
     FM190300 36011G17KT P6SM SCT120 WS018/03040KT
     FM190900 35011G18KT P6SM SKC=

USA.gov is the U.S. government's official web portal to all federal, state and local government web resources and services.